createdAt,value
2023-03-22T00:01:36.752Z,11.67
2023-03-22T00:06:44.167Z,12.37
2023-03-22T00:11:54.106Z,11.86
2023-03-22T00:16:57.107Z,11.92
2023-03-22T00:22:03.509Z,11.37
2023-03-22T00:27:24.413Z,11.94
2023-03-22T00:32:57.880Z,12.01
2023-03-22T00:43:42.107Z,11.65
2023-03-22T00:48:45.661Z,12.85
2023-03-22T00:53:50.996Z,12.26
2023-03-22T00:58:53.817Z,12.62
2023-03-22T01:03:59.372Z,12.77
2023-03-22T01:09:04.920Z,12.74
2023-03-22T01:14:09.614Z,12.79
2023-03-22T01:19:12.614Z,12.78
2023-03-22T01:24:19.559Z,11.29
2023-03-22T01:29:23.163Z,10.74
2023-03-22T01:34:31.054Z,12.10
2023-03-22T01:39:40.185Z,12.67
2023-03-22T01:45:20.971Z,10.28
2023-03-22T01:50:30.153Z,11.51
2023-03-22T01:55:35.632Z,12.05
2023-03-22T02:01:01.442Z,12.44
2023-03-22T02:06:27.336Z,12.36
2023-03-22T02:11:43.866Z,10.58
2023-03-22T02:17:20.793Z,12.36
2023-03-22T02:22:58.193Z,12.24
2023-03-22T02:28:18.714Z,10.94
2023-03-22T02:33:41.568Z,12.05
2023-03-22T02:39:16.678Z,9.53
2023-03-22T02:44:27.793Z,12.06
2023-03-22T02:49:38.656Z,11.62
2023-03-22T02:54:50.096Z,11.86
2023-03-22T02:59:56.018Z,11.86
2023-03-22T03:05:02.575Z,11.25
2023-03-22T03:10:08.606Z,11.16
2023-03-22T03:15:16.400Z,9.59
2023-03-22T03:20:34.412Z,11.66
2023-03-22T03:25:44.666Z,11.66
2023-03-22T03:30:54.696Z,11.70
2023-03-22T03:36:02.610Z,11.79
2023-03-22T03:41:10.798Z,11.30
2023-03-22T03:46:17.073Z,11.95
2023-03-22T03:51:20.543Z,11.87
2023-03-22T03:56:25.052Z,11.73
2023-03-22T04:01:29.567Z,11.71
2023-03-22T04:06:54.525Z,11.66
2023-03-22T04:12:01.832Z,11.66
2023-03-22T04:17:05.090Z,11.71
2023-03-22T04:22:14.861Z,11.34
2023-03-22T04:27:22.101Z,11.48
2023-03-22T04:32:38.466Z,11.48
2023-03-22T04:37:43.059Z,9.11
2023-03-22T04:42:57.441Z,11.56
2023-03-22T04:48:22.168Z,11.38
2023-03-22T04:53:27.279Z,10.92
2023-03-22T04:58:38.704Z,11.45
2023-03-22T05:03:45.460Z,11.32
2023-03-22T05:08:48.679Z,11.44
2023-03-22T05:13:54.010Z,11.19
2023-03-22T05:19:02.732Z,11.16
2023-03-22T05:24:06.194Z,9.70
2023-03-22T05:29:11.468Z,11.51
2023-03-22T05:34:45.147Z,10.51
2023-03-22T05:40:04.048Z,8.30
2023-03-22T05:45:37.095Z,11.20
2023-03-22T05:50:50.401Z,11.51
2023-03-22T05:55:57.695Z,11.62
2023-03-22T06:01:16.305Z,11.34
2023-03-22T06:06:22.112Z,11.65
2023-03-22T06:11:37.478Z,11.78
2023-03-22T06:16:49.841Z,9.55
2023-03-22T06:21:53.397Z,11.83
2023-03-22T06:26:58.977Z,11.81
2023-03-22T06:32:09.216Z,9.17
2023-03-22T06:37:12.463Z,11.95
2023-03-22T06:42:17.969Z,11.77
2023-03-22T06:47:27.560Z,12.04
2023-03-22T06:52:49.824Z,11.91
2023-03-22T06:57:52.775Z,12.13
2023-03-22T07:02:57.491Z,12.12
2023-03-22T07:08:09.057Z,12.38
2023-03-22T07:13:19.238Z,12.36
2023-03-22T07:18:25.959Z,12.81
2023-03-22T07:23:28.826Z,12.27
2023-03-22T07:28:37.283Z,12.62
2023-03-22T07:33:46.255Z,12.60
2023-03-22T07:38:58.605Z,12.11
2023-03-22T07:44:17.194Z,12.67
2023-03-22T07:49:30.252Z,11.44
2023-03-22T07:54:34.443Z,12.65
2023-03-22T07:59:40.260Z,12.69
2023-03-22T08:04:49.045Z,11.01
2023-03-22T08:10:06.383Z,11.58
2023-03-22T08:15:14.089Z,12.02
2023-03-22T08:20:21.423Z,12.82
2023-03-22T08:25:31.269Z,12.86
2023-03-22T08:30:41.943Z,12.65
2023-03-22T08:35:46.411Z,12.60
2023-03-22T08:40:49.239Z,12.37
2023-03-22T08:45:56.458Z,12.72
2023-03-22T08:51:02.802Z,12.34
2023-03-22T08:56:17.813Z,12.73
2023-03-22T09:01:35.844Z,12.81
2023-03-22T09:06:44.149Z,13.00
2023-03-22T09:11:50.305Z,12.99
2023-03-22T09:16:53.137Z,13.51
2023-03-22T09:21:57.894Z,11.97
2023-03-22T09:27:08.939Z,13.25
2023-03-22T09:32:11.693Z,12.88
2023-03-22T09:37:20.414Z,13.36
2023-03-22T09:42:38.862Z,13.16
2023-03-22T09:47:50.040Z,12.61
2023-03-22T09:52:54.977Z,12.83
2023-03-22T09:58:05.789Z,13.41
2023-03-22T10:03:20.945Z,13.57
2023-03-22T10:08:39.907Z,13.29
2023-03-22T10:13:52.478Z,13.60
2023-03-22T10:19:04.142Z,13.51
2023-03-22T10:24:17.153Z,13.14
2023-03-22T10:29:28.121Z,13.30
2023-03-22T10:34:32.569Z,12.56
2023-03-22T10:39:40.969Z,13.62
2023-03-22T10:44:49.428Z,13.48
2023-03-22T10:55:58.622Z,12.27
2023-03-22T11:01:08.653Z,13.87
2023-03-22T11:06:14.461Z,13.85
2023-03-22T11:11:24.127Z,13.23
2023-03-22T11:16:27.123Z,13.86
2023-03-22T11:21:35.012Z,13.90
2023-03-22T11:26:41.422Z,13.75
2023-03-22T11:31:56.188Z,13.86
2023-03-22T11:37:01.459Z,13.63
2023-03-22T11:42:07.758Z,12.86
2023-03-22T11:47:14.254Z,13.80
2023-03-22T11:52:20.810Z,13.98
2023-03-22T11:57:29.782Z,12.01
2023-03-22T12:02:36.948Z,13.77
2023-03-22T12:07:46.874Z,13.86
2023-03-22T12:12:55.379Z,13.88
2023-03-22T12:18:06.018Z,13.75
2023-03-22T12:23:15.551Z,13.80
2023-03-22T12:28:23.436Z,13.79
2023-03-22T12:33:30.835Z,13.07
2023-03-22T12:38:44.638Z,13.71
2023-03-22T12:43:54.504Z,13.84
2023-03-22T12:49:04.421Z,13.79
2023-03-22T12:54:07.854Z,13.49
2023-03-22T12:59:19.036Z,13.96
2023-03-22T13:04:32.759Z,12.89
2023-03-22T13:09:43.830Z,11.50
2023-03-22T13:15:03.947Z,14.03
2023-03-22T13:20:28.510Z,12.56
2023-03-22T13:30:56.834Z,13.69
2023-03-22T13:36:05.885Z,14.09
2023-03-22T13:41:22.249Z,12.96
2023-03-22T13:46:48.556Z,13.46
2023-03-22T13:51:52.467Z,12.99
2023-03-22T13:56:59.510Z,14.16
2023-03-22T14:02:18.406Z,13.80
2023-03-22T14:07:41.517Z,11.47
2023-03-22T14:12:52.685Z,13.27
2023-03-22T14:18:02.073Z,13.82
